createdAt,value
2023-04-07T00:02:18.677Z,12.10
2023-04-07T00:04:52.023Z,12.43
2023-04-07T00:07:25.272Z,12.20
2023-04-07T00:09:59.349Z,13.03
2023-04-07T00:12:32.506Z,12.87
2023-04-07T00:15:07.283Z,11.33
2023-04-07T00:17:40.445Z,13.13
2023-04-07T00:20:16.313Z,14.53
2023-04-07T00:22:49.652Z,12.90
2023-04-07T00:25:23.265Z,13.50
2023-04-07T00:27:57.132Z,14.20
2023-04-07T00:30:31.400Z,13.30
2023-04-07T00:33:04.988Z,12.77
2023-04-07T00:35:43.311Z,12.73
2023-04-07T00:38:16.642Z,12.53
2023-04-07T00:40:51.264Z,12.60
2023-04-07T00:43:25.725Z,12.47
2023-04-07T00:45:59.944Z,12.53
2023-04-07T00:48:34.592Z,11.87
2023-04-07T00:51:08.879Z,11.80
2023-04-07T00:53:43.304Z,12.03
2023-04-07T00:56:16.961Z,13.37
2023-04-07T00:58:50.350Z,13.10
2023-04-07T01:01:28.868Z,12.27
2023-04-07T01:04:09.159Z,13.07
2023-04-07T01:06:49.988Z,13.40
2023-04-07T01:09:27.622Z,13.25
2023-04-07T01:12:07.019Z,13.17
2023-04-07T01:14:47.880Z,13.00
2023-04-07T01:17:39.218Z,12.90
2023-04-07T01:20:18.124Z,13.17
2023-04-07T01:22:55.852Z,13.30
2023-04-07T01:25:52.151Z,12.67
2023-04-07T01:28:46.404Z,13.40
2023-04-07T01:31:20.913Z,13.30
2023-04-07T01:33:56.994Z,12.47
2023-04-07T01:36:33.890Z,12.90
2023-04-07T01:39:08.478Z,13.33
2023-04-07T01:41:42.749Z,14.67
2023-04-07T01:44:17.972Z,14.00
2023-04-07T01:46:52.294Z,13.80
2023-04-07T01:49:27.324Z,13.20
2023-04-07T01:52:01.906Z,13.33
2023-04-07T01:54:37.044Z,14.47
2023-04-07T01:57:10.640Z,13.83
2023-04-07T01:59:44.426Z,14.47
2023-04-07T02:02:19.174Z,15.03
2023-04-07T02:04:56.542Z,13.90
2023-04-07T02:07:33.676Z,13.87
2023-04-07T02:10:13.621Z,13.63
2023-04-07T02:12:48.684Z,14.20
2023-04-07T02:15:26.624Z,14.10
2023-04-07T02:18:03.167Z,13.90
2023-04-07T02:20:38.972Z,15.35
2023-04-07T02:23:12.762Z,15.13
2023-04-07T02:25:47.278Z,15.13
2023-04-07T02:28:20.574Z,15.10
2023-04-07T02:30:54.403Z,16.00
2023-04-07T02:33:27.831Z,14.87
2023-04-07T02:36:01.201Z,15.43
2023-04-07T02:38:35.247Z,14.80
2023-04-07T02:41:11.658Z,14.27
2023-04-07T02:43:45.254Z,15.57
2023-04-07T02:46:18.697Z,15.27
2023-04-07T02:48:52.417Z,16.23
2023-04-07T02:51:27.285Z,23.13
2023-04-07T02:54:00.882Z,28.87
2023-04-07T02:56:35.093Z,32.03
2023-04-07T02:59:09.101Z,31.30
2023-04-07T03:01:46.642Z,28.23
2023-04-07T03:04:20.523Z,22.90
2023-04-07T03:06:54.402Z,21.27
2023-04-07T03:09:28.013Z,20.00
2023-04-07T03:12:03.854Z,18.67
2023-04-07T03:14:40.528Z,17.93
2023-04-07T03:17:14.126Z,17.93
2023-04-07T03:19:49.578Z,17.30
2023-04-07T03:22:23.241Z,15.83
2023-04-07T03:24:58.406Z,17.03
2023-04-07T03:27:32.310Z,16.63
2023-04-07T03:30:09.543Z,16.60
2023-04-07T03:32:43.004Z,16.03
2023-04-07T03:35:17.624Z,15.63
2023-04-07T03:37:51.158Z,16.20
2023-04-07T03:40:24.917Z,16.47
2023-04-07T03:42:58.322Z,15.83
2023-04-07T03:45:31.913Z,17.87
2023-04-07T03:48:05.593Z,18.60
2023-04-07T03:50:39.578Z,22.00
2023-04-07T03:53:19.670Z,22.20
2023-04-07T03:55:53.486Z,24.70
2023-04-07T03:58:34.896Z,23.70
2023-04-07T04:01:09.074Z,22.70
2023-04-07T04:03:43.086Z,23.20
2023-04-07T04:06:36.402Z,21.10
2023-04-07T04:09:21.226Z,21.73
2023-04-07T04:11:55.423Z,21.33
2023-04-07T04:14:30.264Z,20.23
2023-04-07T04:17:05.687Z,21.20
2023-04-07T04:19:52.157Z,19.77
2023-04-07T04:22:32.611Z,20.90
2023-04-07T04:25:06.421Z,19.03
2023-04-07T04:27:40.224Z,20.60
2023-04-07T04:30:21.334Z,19.93
2023-04-07T04:33:01.385Z,21.43
2023-04-07T04:35:41.089Z,20.20
2023-04-07T04:38:17.567Z,20.17
2023-04-07T04:40:55.869Z,20.03
2023-04-07T04:43:35.753Z,18.33
2023-04-07T04:46:09.838Z,20.90
2023-04-07T04:48:47.069Z,18.97
2023-04-07T04:51:23.716Z,19.93
2023-04-07T04:54:01.410Z,20.27
2023-04-07T04:56:35.014Z,19.57
2023-04-07T04:59:09.003Z,19.80
2023-04-07T05:01:50.250Z,19.90
2023-04-07T05:04:24.547Z,20.23
2023-04-07T05:07:05.792Z,19.07
2023-04-07T05:09:39.593Z,20.57
2023-04-07T05:12:15.865Z,20.63
2023-04-07T05:14:53.560Z,19.03
2023-04-07T05:17:27.977Z,20.73
2023-04-07T05:20:01.458Z,19.83
2023-04-07T05:22:43.428Z,20.25
2023-04-07T05:25:19.215Z,21.03
2023-04-07T05:27:54.247Z,20.40
2023-04-07T05:30:28.168Z,20.97
2023-04-07T05:33:01.684Z,20.03
2023-04-07T05:35:47.638Z,19.67
2023-04-07T05:38:21.467Z,20.10
2023-04-07T05:40:55.258Z,22.03
2023-04-07T05:43:33.112Z,20.73
2023-04-07T05:46:06.770Z,21.33
2023-04-07T05:48:42.202Z,21.47
2023-04-07T05:51:15.793Z,21.50
2023-04-07T05:53:50.022Z,20.83
2023-04-07T05:56:24.111Z,19.93
2023-04-07T05:58:59.350Z,20.73
2023-04-07T06:01:33.182Z,21.17
2023-04-07T06:04:06.759Z,21.30
2023-04-07T06:06:40.355Z,20.73
2023-04-07T06:09:13.755Z,19.93
2023-04-07T06:11:47.348Z,20.60
2023-04-07T06:14:22.159Z,20.90
2023-04-07T06:16:56.829Z,20.43
2023-04-07T06:19:32.446Z,19.53
2023-04-07T06:22:07.067Z,18.60
2023-04-07T06:24:40.294Z,17.80
2023-04-07T06:27:14.372Z,18.57
2023-04-07T06:29:48.073Z,19.43
2023-04-07T06:32:22.290Z,18.40
2023-04-07T06:34:56.740Z,18.83
2023-04-07T06:37:30.715Z,16.63
2023-04-07T06:40:04.585Z,17.93
2023-04-07T06:42:37.922Z,17.13
2023-04-07T06:45:17.265Z,16.90
2023-04-07T06:47:51.096Z,16.10
2023-04-07T06:50:24.488Z,16.20
2023-04-07T06:52:58.039Z,16.70
2023-04-07T06:55:31.491Z,16.33
2023-04-07T06:58:04.669Z,16.17
2023-04-07T07:00:38.740Z,18.23
2023-04-07T07:03:12.577Z,17.67
2023-04-07T07:05:46.146Z,17.30
2023-04-07T07:08:19.409Z,16.63
2023-04-07T07:10:53.029Z,17.80
2023-04-07T07:13:28.267Z,17.27
2023-04-07T07:16:01.939Z,18.80
2023-04-07T07:18:34.948Z,17.87
2023-04-07T07:21:08.721Z,17.93
2023-04-07T07:23:42.123Z,17.90
2023-04-07T07:26:15.869Z,18.07
2023-04-07T07:28:49.867Z,16.90
2023-04-07T07:31:23.510Z,16.60
2023-04-07T07:33:57.069Z,17.57
2023-04-07T07:36:30.466Z,16.70
2023-04-07T07:39:03.960Z,17.07
2023-04-07T07:41:37.515Z,16.60
2023-04-07T07:44:11.263Z,15.53
2023-04-07T07:46:44.902Z,16.73
2023-04-07T07:49:18.511Z,15.87
2023-04-07T07:51:52.261Z,15.77
2023-04-07T07:54:25.745Z,16.70
2023-04-07T07:56:59.126Z,15.93
2023-04-07T07:59:32.339Z,17.37
2023-04-07T08:02:05.715Z,16.00
2023-04-07T08:04:39.664Z,16.03
2023-04-07T08:07:12.830Z,16.23
2023-04-07T08:09:46.432Z,15.10
2023-04-07T08:12:19.838Z,14.77
2023-04-07T08:14:53.633Z,15.00
2023-04-07T08:17:26.755Z,15.73
2023-04-07T08:20:00.183Z,15.17
2023-04-07T08:22:33.389Z,15.20
2023-04-07T08:25:07.085Z,14.50
2023-04-07T08:27:41.289Z,15.00
2023-04-07T08:30:17.028Z,12.97
2023-04-07T08:32:51.103Z,13.03
2023-04-07T08:35:24.726Z,13.10
2023-04-07T08:37:58.275Z,12.45
2023-04-07T08:40:32.019Z,11.70
2023-04-07T08:43:09.847Z,9.23
2023-04-07T08:45:44.274Z,7.90
2023-04-07T08:48:20.191Z,7.57
2023-04-07T08:50:55.373Z,7.43
2023-04-07T08:53:37.487Z,8.20
2023-04-07T08:56:12.954Z,7.92
2023-04-07T08:58:50.241Z,9.77
2023-04-07T09:01:24.329Z,7.70
2023-04-07T09:03:58.395Z,9.20
2023-04-07T09:06:34.174Z,9.30
2023-04-07T09:09:08.089Z,9.83
2023-04-07T09:11:42.991Z,9.73
2023-04-07T09:14:16.723Z,9.90
2023-04-07T09:16:50.826Z,9.60
2023-04-07T09:19:26.360Z,10.30
2023-04-07T09:21:59.701Z,11.13
2023-04-07T09:24:33.790Z,10.97
2023-04-07T09:27:19.416Z,9.30
2023-04-07T09:29:52.582Z,10.17
2023-04-07T09:32:41.619Z,10.57
2023-04-07T09:35:14.897Z,10.03
2023-04-07T09:38:02.284Z,9.67
2023-04-07T09:40:36.710Z,10.90
2023-04-07T09:43:16.724Z,8.73
2023-04-07T09:45:50.510Z,8.53
2023-04-07T09:48:24.918Z,9.37
2023-04-07T09:51:09.698Z,8.83
2023-04-07T09:53:49.040Z,9.80
2023-04-07T09:56:24.143Z,9.63
2023-04-07T09:58:58.368Z,9.30
2023-04-07T10:01:31.894Z,8.87
2023-04-07T10:04:07.020Z,9.33
2023-04-07T10:06:40.813Z,8.73
2023-04-07T10:09:15.112Z,8.20
2023-04-07T10:11:49.029Z,7.40
2023-04-07T10:14:27.701Z,8.00
2023-04-07T10:17:01.506Z,8.53
2023-04-07T10:19:36.234Z,9.27
2023-04-07T10:22:10.595Z,8.30
2023-04-07T10:24:54.436Z,7.87
2023-04-07T10:27:32.850Z,8.37
2023-04-07T10:30:13.718Z,8.30
2023-04-07T10:32:52.785Z,8.45
2023-04-07T10:35:26.978Z,9.10
2023-04-07T10:38:17.353Z,9.03
2023-04-07T10:40:50.918Z,9.03
2023-04-07T10:43:42.186Z,8.57
2023-04-07T10:46:15.890Z,9.47
2023-04-07T10:49:12.141Z,8.70
2023-04-07T10:51:45.907Z,8.87
2023-04-07T10:54:24.133Z,9.57
2023-04-07T10:57:24.521Z,11.33
2023-04-07T11:00:19.886Z,9.83
2023-04-07T11:02:53.611Z,10.47
2023-04-07T11:05:27.523Z,10.13
2023-04-07T11:08:05.804Z,10.43
2023-04-07T11:10:40.127Z,9.20
2023-04-07T11:13:13.626Z,9.17
2023-04-07T11:15:51.442Z,9.27
2023-04-07T11:18:25.654Z,8.50
2023-04-07T11:20:59.910Z,9.33
2023-04-07T11:23:39.651Z,9.73
2023-04-07T11:26:14.617Z,8.13
2023-04-07T11:28:50.323Z,7.83
2023-04-07T11:31:27.715Z,8.67
2023-04-07T11:34:03.405Z,9.37
2023-04-07T11:36:39.737Z,8.03
2023-04-07T11:39:23.570Z,9.13
2023-04-07T11:41:56.966Z,8.60
2023-04-07T11:44:30.575Z,8.00
2023-04-07T11:47:05.392Z,8.40
2023-04-07T11:49:45.955Z,8.00
2023-04-07T11:52:19.631Z,7.90
2023-04-07T11:54:53.372Z,7.77
2023-04-07T11:57:30.089Z,8.57
2023-04-07T12:00:12.902Z,8.30
2023-04-07T12:02:46.870Z,8.40
2023-04-07T12:05:21.185Z,7.90
2023-04-07T12:07:58.137Z,8.70
2023-04-07T12:10:33.578Z,8.13
2023-04-07T12:13:07.924Z,7.60
2023-04-07T12:15:41.636Z,9.33
2023-04-07T12:18:19.391Z,9.13
2023-04-07T12:20:52.573Z,7.93
2023-04-07T12:23:26.505Z,8.43
2023-04-07T12:25:59.900Z,8.80
2023-04-07T12:28:33.505Z,8.57
2023-04-07T12:31:07.510Z,9.10
2023-04-07T12:33:40.623Z,9.10
2023-04-07T12:36:14.112Z,8.93
2023-04-07T12:38:47.414Z,7.87
2023-04-07T12:41:20.740Z,8.77
2023-04-07T12:43:54.294Z,8.83
2023-04-07T12:46:27.715Z,10.20
2023-04-07T12:49:01.306Z,9.33
2023-04-07T12:51:35.074Z,9.83
2023-04-07T12:54:08.890Z,9.97
2023-04-07T12:56:42.548Z,9.87
2023-04-07T12:59:16.491Z,9.23
2023-04-07T13:01:50.975Z,9.60
2023-04-07T13:04:24.673Z,9.13
2023-04-07T13:06:59.723Z,10.03
2023-04-07T13:09:33.439Z,9.23
2023-04-07T13:12:06.837Z,10.30
2023-04-07T13:14:52.757Z,11.30
2023-04-07T13:17:30.951Z,9.10
2023-04-07T13:20:05.684Z,10.40
2023-04-07T13:22:48.810Z,10.40
2023-04-07T13:25:25.868Z,10.80
2023-04-07T13:28:00.083Z,10.27
2023-04-07T13:30:33.964Z,11.00
2023-04-07T13:33:07.584Z,10.43
2023-04-07T13:35:41.101Z,10.43
2023-04-07T13:38:14.556Z,10.40
2023-04-07T13:40:49.798Z,10.47
2023-04-07T13:43:23.349Z,10.70
2023-04-07T13:45:56.952Z,9.53
2023-04-07T13:48:30.524Z,10.35
2023-04-07T13:51:03.667Z,9.93
2023-04-07T13:53:37.318Z,10.63
2023-04-07T13:56:12.228Z,10.37
2023-04-07T13:58:46.347Z,11.53
2023-04-07T14:01:19.814Z,12.17
2023-04-07T14:03:53.104Z,10.87
2023-04-07T14:06:27.282Z,11.03
2023-04-07T14:09:01.564Z,11.27
2023-04-07T14:11:35.367Z,10.47
2023-04-07T14:14:08.993Z,10.20
2023-04-07T14:16:42.583Z,10.63
2023-04-07T14:19:15.672Z,11.40
2023-04-07T14:21:48.946Z,10.70
2023-04-07T14:24:22.551Z,10.77
2023-04-07T14:26:56.157Z,10.87
2023-04-07T14:29:29.387Z,11.10
2023-04-07T14:32:02.866Z,10.73
2023-04-07T14:34:36.354Z,11.57
2023-04-07T14:37:10.148Z,11.17
2023-04-07T14:39:55.322Z,11.40
2023-04-07T14:42:37.091Z,12.50
2023-04-07T14:45:13.082Z,11.20
2023-04-07T14:47:46.894Z,13.10
2023-04-07T14:50:20.731Z,14.07
2023-04-07T14:52:54.870Z,11.85
2023-04-07T14:55:29.395Z,13.80
2023-04-07T14:58:03.018Z,13.37
2023-04-07T15:00:36.395Z,14.57
2023-04-07T15:03:10.257Z,13.30
2023-04-07T15:05:44.519Z,13.20
2023-04-07T15:08:18.141Z,14.27
2023-04-07T15:10:51.441Z,16.20
2023-04-07T15:13:24.904Z,15.73
2023-04-07T15:15:58.741Z,17.03
2023-04-07T15:18:32.330Z,14.53
2023-04-07T15:21:06.234Z,14.57
2023-04-07T15:23:40.679Z,14.10
2023-04-07T15:26:14.383Z,13.10
2023-04-07T15:28:48.135Z,14.53
2023-04-07T15:31:23.637Z,13.10
2023-04-07T15:33:56.760Z,13.07
2023-04-07T15:36:31.542Z,13.20
2023-04-07T15:39:07.282Z,14.97
2023-04-07T15:41:41.864Z,14.70
2023-04-07T15:44:20.274Z,14.97
2023-04-07T15:46:54.357Z,14.33
2023-04-07T15:49:27.708Z,14.13
2023-04-07T15:52:01.410Z,15.20
2023-04-07T15:54:35.051Z,13.40
2023-04-07T15:57:08.588Z,14.63
2023-04-07T15:59:42.385Z,14.40
2023-04-07T16:02:16.182Z,14.23
2023-04-07T16:04:49.449Z,15.17
2023-04-07T16:07:22.878Z,15.60
2023-04-07T16:09:56.377Z,14.43
2023-04-07T16:12:29.862Z,13.73
2023-04-07T16:15:03.835Z,15.17
2023-04-07T16:17:37.930Z,15.63
2023-04-07T16:20:16.096Z,15.90
2023-04-07T16:22:50.660Z,14.63
2023-04-07T16:25:23.915Z,17.07
2023-04-07T16:27:57.282Z,16.43
2023-04-07T16:30:30.897Z,15.40
2023-04-07T16:33:04.953Z,15.70
2023-04-07T16:35:38.533Z,18.47
2023-04-07T16:38:11.925Z,18.10
2023-04-07T16:41:02.826Z,18.37
2023-04-07T16:46:10.475Z,19.20
2023-04-07T16:48:44.028Z,19.33
2023-04-07T16:51:21.463Z,18.13
2023-04-07T16:53:55.138Z,19.73
2023-04-07T16:56:28.917Z,20.93
2023-04-07T16:59:03.880Z,20.83
2023-04-07T17:01:41.496Z,20.07
2023-04-07T17:04:15.527Z,20.00
2023-04-07T17:06:49.157Z,19.87
2023-04-07T17:09:23.124Z,20.87
2023-04-07T17:11:57.172Z,19.37
2023-04-07T17:14:30.972Z,19.27
2023-04-07T17:17:05.260Z,19.47
2023-04-07T17:19:38.662Z,20.00
2023-04-07T17:22:12.176Z,19.73
2023-04-07T17:24:47.416Z,19.80
2023-04-07T17:27:21.514Z,20.97
2023-04-07T17:29:55.030Z,21.80
2023-04-07T17:32:28.153Z,20.40
2023-04-07T17:35:01.401Z,19.67
2023-04-07T17:37:35.001Z,20.53
2023-04-07T17:40:10.677Z,20.77
2023-04-07T17:42:44.856Z,20.20
2023-04-07T17:45:18.463Z,23.47
2023-04-07T17:47:52.919Z,22.13
2023-04-07T17:50:26.118Z,20.80
2023-04-07T17:53:00.902Z,22.27
2023-04-07T17:55:34.373Z,23.03
2023-04-07T17:58:07.678Z,24.57
2023-04-07T18:00:41.084Z,24.37
2023-04-07T18:03:14.967Z,24.20
2023-04-07T18:05:49.512Z,21.67
2023-04-07T18:08:22.904Z,24.93
2023-04-07T18:10:56.503Z,23.83
2023-04-07T18:13:30.161Z,27.73
2023-04-07T18:16:03.425Z,29.93
2023-04-07T18:18:36.689Z,32.60
2023-04-07T18:21:14.465Z,30.87
2023-04-07T18:23:49.559Z,28.77
2023-04-07T18:26:23.821Z,28.97
2023-04-07T18:28:57.852Z,29.17
2023-04-07T18:31:31.868Z,33.10
2023-04-07T18:34:05.031Z,25.83
2023-04-07T18:36:38.498Z,24.93
2023-04-07T18:39:12.059Z,23.00
2023-04-07T18:41:47.672Z,23.33
2023-04-07T18:44:20.885Z,21.80
2023-04-07T18:46:54.774Z,23.03
2023-04-07T18:49:29.030Z,23.37
2023-04-07T18:52:02.450Z,23.07
2023-04-07T18:54:35.884Z,23.70
2023-04-07T18:57:09.280Z,23.77
2023-04-07T18:59:42.129Z,23.37
2023-04-07T19:02:15.935Z,23.37
2023-04-07T19:04:51.558Z,23.33
2023-04-07T19:07:25.323Z,23.27
2023-04-07T19:09:58.917Z,23.73
2023-04-07T19:12:32.529Z,26.13
2023-04-07T19:15:06.761Z,26.20
2023-04-07T19:17:40.641Z,26.40
2023-04-07T19:20:15.250Z,25.70
2023-04-07T19:22:48.799Z,26.30
2023-04-07T19:25:22.714Z,26.73
2023-04-07T19:27:56.354Z,26.20
2023-04-07T19:30:29.813Z,25.40
2023-04-07T19:33:03.169Z,25.23
2023-04-07T19:35:39.208Z,23.90
2023-04-07T19:38:12.735Z,25.03
2023-04-07T19:40:46.148Z,23.37
2023-04-07T19:43:21.208Z,23.83
2023-04-07T19:45:54.554Z,23.60
2023-04-07T19:48:28.703Z,23.33
2023-04-07T19:51:02.663Z,22.87
2023-04-07T19:53:36.719Z,22.23
2023-04-07T19:56:11.245Z,23.60
2023-04-07T19:58:44.883Z,23.27
2023-04-07T20:01:20.895Z,25.17
2023-04-07T20:03:54.600Z,25.83
2023-04-07T20:06:28.190Z,25.53
2023-04-07T20:09:03.243Z,27.33
2023-04-07T20:11:36.810Z,26.87
2023-04-07T20:14:10.372Z,25.20
2023-04-07T20:16:43.201Z,26.00
2023-04-07T20:19:16.962Z,26.40
2023-04-07T20:21:51.069Z,27.10
2023-04-07T20:24:24.511Z,25.63
2023-04-07T20:26:58.366Z,25.67
2023-04-07T20:29:31.971Z,27.50
2023-04-07T20:32:05.774Z,26.17
2023-04-07T20:34:38.622Z,26.83
2023-04-07T20:37:12.359Z,25.00
2023-04-07T20:39:45.511Z,26.40
2023-04-07T20:42:19.298Z,25.80
2023-04-07T20:44:54.907Z,26.37
2023-04-07T20:47:29.036Z,27.73
2023-04-07T20:50:02.416Z,28.17
2023-04-07T20:52:39.733Z,29.17
2023-04-07T20:55:15.404Z,27.50
2023-04-07T20:57:49.298Z,27.93
2023-04-07T21:00:23.372Z,27.60
2023-04-07T21:02:57.296Z,26.97
2023-04-07T21:05:31.033Z,27.00
2023-04-07T21:08:04.233Z,27.80
2023-04-07T21:10:37.600Z,26.93
2023-04-07T21:13:11.167Z,27.40
2023-04-07T21:15:44.568Z,26.17
2023-04-07T21:18:19.440Z,25.60
2023-04-07T21:20:52.983Z,26.03
2023-04-07T21:23:26.590Z,27.70
2023-04-07T21:26:03.424Z,26.93
2023-04-07T21:28:37.256Z,25.70
2023-04-07T21:31:11.059Z,26.20
2023-04-07T21:33:44.322Z,26.37
2023-04-07T21:36:17.624Z,25.37
2023-04-07T21:38:52.281Z,25.47
2023-04-07T21:41:25.448Z,26.10
2023-04-07T21:43:59.051Z,26.47
2023-04-07T21:46:33.495Z,25.87
2023-04-07T21:49:07.724Z,26.27
2023-04-07T21:51:41.100Z,25.60
2023-04-07T21:54:15.318Z,26.73
2023-04-07T21:56:49.584Z,25.83
2023-04-07T21:59:22.978Z,27.73
2023-04-07T22:01:57.665Z,27.37
2023-04-07T22:04:30.969Z,27.87
2023-04-07T22:07:05.341Z,30.83
2023-04-07T22:09:39.150Z,29.30
2023-04-07T22:12:12.652Z,28.67
2023-04-07T22:14:46.202Z,29.80
2023-04-07T22:17:19.536Z,26.77
2023-04-07T22:19:53.128Z,27.50
2023-04-07T22:22:26.730Z,28.00
2023-04-07T22:25:00.328Z,27.67
2023-04-07T22:27:34.131Z,26.73
2023-04-07T22:30:11.035Z,27.60
2023-04-07T22:32:44.270Z,27.90
2023-04-07T22:35:17.793Z,27.83
2023-04-07T22:37:51.410Z,27.33
2023-04-07T22:40:25.198Z,27.93
2023-04-07T22:42:58.599Z,27.87
2023-04-07T22:45:32.460Z,28.27
2023-04-07T22:48:06.613Z,27.67
2023-04-07T22:50:40.576Z,26.40
2023-04-07T22:53:14.041Z,27.00
2023-04-07T22:55:47.612Z,26.20
2023-04-07T22:58:21.416Z,26.37
2023-04-07T23:00:54.515Z,25.93
2023-04-07T23:03:28.063Z,25.00
2023-04-07T23:06:02.680Z,25.93
2023-04-07T23:08:36.016Z,25.67
2023-04-07T23:11:11.915Z,25.00
2023-04-07T23:13:45.267Z,25.63
2023-04-07T23:16:19.133Z,25.97
2023-04-07T23:18:52.524Z,25.73
2023-04-07T23:21:26.674Z,26.80
2023-04-07T23:24:00.714Z,25.67
2023-04-07T23:26:34.081Z,26.07
2023-04-07T23:29:07.592Z,26.27
2023-04-07T23:31:40.975Z,26.23
2023-04-07T23:34:14.178Z,27.80
2023-04-07T23:36:47.861Z,26.97
2023-04-07T23:39:21.675Z,25.93
2023-04-07T23:41:56.094Z,26.83
2023-04-07T23:44:29.596Z,27.30
2023-04-07T23:47:02.889Z,26.80
2023-04-07T23:49:35.865Z,26.00
2023-04-07T23:52:09.889Z,25.53
2023-04-07T23:54:43.123Z,26.83
2023-04-07T23:57:16.743Z,27.77
2023-04-07T23:59:50.082Z,28.17
